sensor_id;sensor_type;location;lat;lon;timestamp;pressure;altitude;pressure_sealevel;temperature;humidity
31285;BME280;56605;51.516;6.742;2023-11-18T00:00:07;102261.22;;;5.45;100.00
31285;BME280;56605;51.516;6.742;2023-11-18T00:02:37;102258.06;;;5.68;100.00
31285;BME280;56605;51.516;6.742;2023-11-18T00:05:03;102265.75;;;5.58;100.00
31285;BME280;56605;51.516;6.742;2023-11-18T00:07:29;102266.09;;;5.66;100.00
31285;BME280;56605;51.516;6.742;2023-11-18T00:09:54;102263.75;;;5.62;100.00
31285;BME280;56605;51.516;6.742;2023-11-18T00:12:19;102263.47;;;5.52;100.00
31285;BME280;56605;51.516;6.742;2023-11-18T00:14:45;102269.06;;;5.47;100.00
31285;BME280;56605;51.516;6.742;2023-11-18T00:17:11;102258.66;;;5.44;100.00
31285;BME280;56605;51.516;6.742;2023-11-18T00:19:37;102258.00;;;5.55;100.00
31285;BME280;56605;51.516;6.742;2023-11-18T00:22:03;102260.81;;;5.66;100.00
31285;BME280;56605;51.516;6.742;2023-11-18T00:24:28;102255.53;;;5.52;100.00
31285;BME280;56605;51.516;6.742;2023-11-18T00:26:53;102252.34;;;5.89;100.00
31285;BME280;56605;51.516;6.742;2023-11-18T00:29:20;102247.41;;;5.82;100.00
31285;BME280;56605;51.516;6.742;2023-11-18T00:31:45;102253.00;;;5.78;100.00
31285;BME280;56605;51.516;6.742;2023-11-18T00:34:11;102248.81;;;5.61;100.00
31285;BME280;56605;51.516;6.742;2023-11-18T00:36:36;102242.34;;;5.65;100.00
31285;BME280;56605;51.516;6.742;2023-11-18T00:39:01;102242.00;;;5.56;100.00
31285;BME280;56605;51.516;6.742;2023-11-18T00:41:29;102251.66;;;5.57;100.00
31285;BME280;56605;51.516;6.742;2023-11-18T00:43:54;102253.16;;;5.47;100.00
31285;BME280;56605;51.516;6.742;2023-11-18T00:46:19;102254.19;;;5.59;100.00
31285;BME280;56605;51.516;6.742;2023-11-18T00:48:45;102253.72;;;5.52;100.00
31285;BME280;56605;51.516;6.742;2023-11-18T00:51:10;102249.25;;;5.67;100.00
31285;BME280;56605;51.516;6.742;2023-11-18T00:53:35;102241.81;;;5.60;100.00
31285;BME280;56605;51.516;6.742;2023-11-18T00:56:00;102243.47;;;5.75;100.00
31285;BME280;56605;51.516;6.742;2023-11-18T00:58:26;102245.81;;;5.80;100.00
31285;BME280;56605;51.516;6.742;2023-11-18T01:00:51;102238.56;;;5.69;100.00
31285;BME280;56605;51.516;6.742;2023-11-18T01:03:17;102244.88;;;5.81;100.00
31285;BME280;56605;51.516;6.742;2023-11-18T01:05:43;102241.69;;;5.76;100.00
31285;BME280;56605;51.516;6.742;2023-11-18T01:08:09;102240.03;;;5.88;100.00
31285;BME280;56605;51.516;6.742;2023-11-18T01:10:35;102240.66;;;6.06;100.00
31285;BME280;56605;51.516;6.742;2023-11-18T01:13:00;102239.03;;;5.76;100.00
31285;BME280;56605;51.516;6.742;2023-11-18T01:15:25;102241.69;;;5.76;100.00
31285;BME280;56605;51.516;6.742;2023-11-18T01:17:51;102245.59;;;5.97;100.00
31285;BME280;56605;51.516;6.742;2023-11-18T01:20:16;102244.09;;;5.93;100.00
31285;BME280;56605;51.516;6.742;2023-11-18T01:22:46;102253.38;;;5.86;100.00
31285;BME280;56605;51.516;6.742;2023-11-18T01:25:14;102249.78;;;5.87;100.00
31285;BME280;56605;51.516;6.742;2023-11-18T01:27:42;102269.53;;;5.68;100.00
31285;BME280;56605;51.516;6.742;2023-11-18T01:30:11;102268.38;;;5.73;100.00
31285;BME280;56605;51.516;6.742;2023-11-18T01:32:36;102279.06;;;5.71;100.00
31285;BME280;56605;51.516;6.742;2023-11-18T01:35:02;102278.41;;;5.67;100.00
31285;BME280;56605;51.516;6.742;2023-11-18T01:37:27;102278.97;;;5.73;100.00
31285;BME280;56605;51.516;6.742;2023-11-18T01:39:53;102282.00;;;5.66;100.00
31285;BME280;56605;51.516;6.742;2023-11-18T01:42:19;102279.53;;;5.63;100.00
31285;BME280;56605;51.516;6.742;2023-11-18T01:44:44;102279.16;;;5.69;100.00
31285;BME280;56605;51.516;6.742;2023-11-18T01:47:10;102275.94;;;5.64;100.00
31285;BME280;56605;51.516;6.742;2023-11-18T01:49:38;102268.09;;;5.63;100.00
31285;BME280;56605;51.516;6.742;2023-11-18T01:52:05;102272.25;;;5.67;100.00
31285;BME280;56605;51.516;6.742;2023-11-18T01:54:33;102266.59;;;5.58;100.00
31285;BME280;56605;51.516;6.742;2023-11-18T01:56:58;102268.28;;;5.74;100.00
31285;BME280;56605;51.516;6.742;2023-11-18T01:59:25;102265.44;;;5.63;100.00
31285;BME280;56605;51.516;6.742;2023-11-18T02:01:52;102266.00;;;5.68;100.00
31285;BME280;56605;51.516;6.742;2023-11-18T02:04:20;102271.97;;;5.57;100.00
31285;BME280;56605;51.516;6.742;2023-11-18T02:06:47;102265.34;;;5.64;100.00
31285;BME280;56605;51.516;6.742;2023-11-18T02:09:15;102272.34;;;5.80;100.00
31285;BME280;56605;51.516;6.742;2023-11-18T02:11:47;102269.63;;;5.67;100.00
31285;BME280;56605;51.516;6.742;2023-11-18T02:14:17;102267.56;;;5.85;100.00
31285;BME280;56605;51.516;6.742;2023-11-18T02:16:47;102263.47;;;5.94;100.00
31285;BME280;56605;51.516;6.742;2023-11-18T02:19:20;102257.03;;;5.98;100.00
31285;BME280;56605;51.516;6.742;2023-11-18T02:21:47;102251.22;;;5.78;100.00
31285;BME280;56605;51.516;6.742;2023-11-18T02:26:52;102247.31;;;5.84;100.00
31285;BME280;56605;51.516;6.742;2023-11-18T02:29:18;102236.72;;;5.84;100.00
31285;BME280;56605;51.516;6.742;2023-11-18T02:31:44;102243.53;;;5.88;100.00
31285;BME280;56605;51.516;6.742;2023-11-18T02:34:14;102244.31;;;5.76;100.00
31285;BME280;56605;51.516;6.742;2023-11-18T02:36:48;102241.97;;;5.71;100.00
31285;BME280;56605;51.516;6.742;2023-11-18T02:39:22;102244.66;;;5.84;100.00
31285;BME280;56605;51.516;6.742;2023-11-18T02:41:52;102237.22;;;5.76;100.00
31285;BME280;56605;51.516;6.742;2023-11-18T02:44:19;102245.53;;;5.84;100.00
31285;BME280;56605;51.516;6.742;2023-11-18T02:46:48;102254.13;;;5.88;100.00
31285;BME280;56605;51.516;6.742;2023-11-18T02:49:13;102262.38;;;5.83;100.00
31285;BME280;56605;51.516;6.742;2023-11-18T02:51:39;102254.88;;;6.05;100.00
31285;BME280;56605;51.516;6.742;2023-11-18T02:54:05;102262.47;;;5.82;100.00
31285;BME280;56605;51.516;6.742;2023-11-18T02:56:39;102262.13;;;6.01;100.00
31285;BME280;56605;51.516;6.742;2023-11-18T02:59:05;102259.81;;;6.24;100.00
31285;BME280;56605;51.516;6.742;2023-11-18T03:01:33;102250.06;;;6.25;100.00
31285;BME280;56605;51.516;6.742;2023-11-18T03:04:02;102240.28;;;5.97;100.00
31285;BME280;56605;51.516;6.742;2023-11-18T03:06:27;102238.03;;;5.91;100.00
31285;BME280;56605;51.516;6.742;2023-11-18T03:08:53;102236.66;;;5.99;100.00
31285;BME280;56605;51.516;6.742;2023-11-18T03:11:20;102234.63;;;6.04;100.00
31285;BME280;56605;51.516;6.742;2023-11-18T03:13:45;102234.63;;;6.04;100.00
31285;BME280;56605;51.516;6.742;2023-11-18T03:16:13;102223.91;;;6.05;100.00
31285;BME280;56605;51.516;6.742;2023-11-18T03:18:40;102226.72;;;6.30;100.00
31285;BME280;56605;51.516;6.742;2023-11-18T03:21:10;102225.72;;;6.18;100.00
31285;BME280;56605;51.516;6.742;2023-11-18T03:23:37;102224.91;;;6.03;100.00
31285;BME280;56605;51.516;6.742;2023-11-18T03:26:02;102200.97;;;6.04;100.00
31285;BME280;56605;51.516;6.742;2023-11-18T03:28:28;102203.47;;;5.93;100.00
31285;BME280;56605;51.516;6.742;2023-11-18T03:30:53;102205.22;;;5.79;100.00
31285;BME280;56605;51.516;6.742;2023-11-18T03:33:19;102210.97;;;5.86;100.00
31285;BME280;56605;51.516;6.742;2023-11-18T03:35:44;102213.25;;;5.78;100.00
31285;BME280;56605;51.516;6.742;2023-11-18T03:38:10;102207.13;;;5.77;100.00
31285;BME280;56605;51.516;6.742;2023-11-18T03:40:35;102204.78;;;5.73;100.00
31285;BME280;56605;51.516;6.742;2023-11-18T03:43:00;102209.25;;;5.85;100.00
31285;BME280;56605;51.516;6.742;2023-11-18T03:45:25;102221.31;;;5.76;100.00
31285;BME280;56605;51.516;6.742;2023-11-18T03:47:51;102230.22;;;6.17;100.00
31285;BME280;56605;51.516;6.742;2023-11-18T03:50:17;102243.34;;;6.19;100.00
31285;BME280;56605;51.516;6.742;2023-11-18T03:52:42;102241.53;;;6.19;100.00
31285;BME280;56605;51.516;6.742;2023-11-18T03:55:07;102239.81;;;6.46;100.00
31285;BME280;56605;51.516;6.742;2023-11-18T03:57:33;102223.84;;;6.20;100.00
31285;BME280;56605;51.516;6.742;2023-11-18T03:59:59;102236.53;;;6.15;100.00
31285;BME280;56605;51.516;6.742;2023-11-18T04:02:24;102236.25;;;6.19;100.00
31285;BME280;56605;51.516;6.742;2023-11-18T04:04:50;102231.16;;;6.29;100.00
31285;BME280;56605;51.516;6.742;2023-11-18T04:07:15;102225.69;;;6.05;100.00
31285;BME280;56605;51.516;6.742;2023-11-18T04:09:41;102228.09;;;6.22;100.00
31285;BME280;56605;51.516;6.742;2023-11-18T04:12:07;102232.97;;;6.29;100.00
31285;BME280;56605;51.516;6.742;2023-11-18T04:14:33;102232.22;;;6.27;100.00
31285;BME280;56605;51.516;6.742;2023-11-18T04:16:58;102228.19;;;6.21;100.00
31285;BME280;56605;51.516;6.742;2023-11-18T04:19:23;102227.38;;;6.06;100.00
31285;BME280;56605;51.516;6.742;2023-11-18T04:21:48;102224.06;;;6.30;100.00
31285;BME280;56605;51.516;6.742;2023-11-18T04:24:15;102207.91;;;6.07;100.00
31285;BME280;56605;51.516;6.742;2023-11-18T04:26:40;102210.44;;;6.08;100.00
31285;BME280;56605;51.516;6.742;2023-11-18T04:29:06;102212.72;;;6.00;100.00
31285;BME280;56605;51.516;6.742;2023-11-18T04:31:31;102197.53;;;6.17;100.00
31285;BME280;56605;51.516;6.742;2023-11-18T04:33:56;102183.44;;;6.02;100.00
31285;BME280;56605;51.516;6.742;2023-11-18T04:36:22;102172.31;;;5.96;100.00
31285;BME280;56605;51.516;6.742;2023-11-18T04:38:47;102170.38;;;5.99;100.00
31285;BME280;56605;51.516;6.742;2023-11-18T04:41:14;102168.69;;;5.97;100.00
31285;BME280;56605;51.516;6.742;2023-11-18T04:43:40;102164.56;;;5.93;100.00
31285;BME280;56605;51.516;6.742;2023-11-18T04:46:07;102162.44;;;5.99;100.00
31285;BME280;56605;51.516;6.742;2023-11-18T04:48:32;102154.28;;;6.02;100.00
31285;BME280;56605;51.516;6.742;2023-11-18T04:50:59;102159.09;;;5.82;100.00
31285;BME280;56605;51.516;6.742;2023-11-18T04:53:24;102155.31;;;5.86;100.00
31285;BME280;56605;51.516;6.742;2023-11-18T04:55:51;102151.25;;;6.08;100.00
31285;BME280;56605;51.516;6.742;2023-11-18T04:58:16;102140.00;;;6.04;100.00
31285;BME280;56605;51.516;6.742;2023-11-18T05:00:41;102134.44;;;5.94;100.00
31285;BME280;56605;51.516;6.742;2023-11-18T05:03:08;102141.44;;;6.23;100.00
31285;BME280;56605;51.516;6.742;2023-11-18T05:05:36;102130.41;;;6.02;100.00
31285;BME280;56605;51.516;6.742;2023-11-18T05:08:05;102127.31;;;6.22;100.00
31285;BME280;56605;51.516;6.742;2023-11-18T05:10:34;102131.63;;;6.11;100.00
31285;BME280;56605;51.516;6.742;2023-11-18T05:13:01;102119.66;;;6.18;100.00
31285;BME280;56605;51.516;6.742;2023-11-18T05:15:26;102123.59;;;6.25;100.00
31285;BME280;56605;51.516;6.742;2023-11-18T05:17:52;102113.63;;;6.16;100.00
31285;BME280;56605;51.516;6.742;2023-11-18T05:20:18;102103.44;;;6.22;100.00
31285;BME280;56605;51.516;6.742;2023-11-18T05:22:44;102114.34;;;6.05;100.00
31285;BME280;56605;51.516;6.742;2023-11-18T05:25:09;102109.81;;;6.20;100.00
31285;BME280;56605;51.516;6.742;2023-11-18T05:27:35;102111.19;;;6.13;100.00
31285;BME280;56605;51.516;6.742;2023-11-18T05:30:00;102109.81;;;6.20;100.00
31285;BME280;56605;51.516;6.742;2023-11-18T05:32:29;102099.59;;;6.27;100.00
31285;BME280;56605;51.516;6.742;2023-11-18T05:34:55;102109.81;;;6.20;100.00
31285;BME280;56605;51.516;6.742;2023-11-18T05:37:23;102108.31;;;6.29;100.00
31285;BME280;56605;51.516;6.742;2023-11-18T05:39:48;102115.63;;;6.38;100.00
31285;BME280;56605;51.516;6.742;2023-11-18T05:42:18;102115.63;;;6.38;100.00
31285;BME280;56605;51.516;6.742;2023-11-18T05:44:44;102123.28;;;6.43;100.00
31285;BME280;56605;51.516;6.742;2023-11-18T05:47:10;102123.16;;;6.18;100.00
31285;BME280;56605;51.516;6.742;2023-11-18T05:49:40;102111.69;;;6.31;100.00
31285;BME280;56605;51.516;6.742;2023-11-18T05:52:05;102108.09;;;6.45;100.00
31285;BME280;56605;51.516;6.742;2023-11-18T05:54:32;102112.47;;;6.33;100.00
31285;BME280;56605;51.516;6.742;2023-11-18T05:56:57;102096.13;;;6.52;100.00
31285;BME280;56605;51.516;6.742;2023-11-18T05:59:24;102102.50;;;6.37;100.00
31285;BME280;56605;51.516;6.742;2023-11-18T06:01:50;102096.13;;;6.39;100.00
31285;BME280;56605;51.516;6.742;2023-11-18T06:04:15;102098.03;;;6.37;100.00
31285;BME280;56605;51.516;6.742;2023-11-18T06:06:41;102088.88;;;6.41;100.00
31285;BME280;56605;51.516;6.742;2023-11-18T06:09:06;102091.00;;;6.49;100.00
31285;BME280;56605;51.516;6.742;2023-11-18T06:11:35;102089.66;;;6.43;100.00
31285;BME280;56605;51.516;6.742;2023-11-18T06:14:01;102089.44;;;6.46;100.00
31285;BME280;56605;51.516;6.742;2023-11-18T06:16:27;102078.19;;;6.43;100.00
31285;BME280;56605;51.516;6.742;2023-11-18T06:18:54;102065.75;;;6.56;100.00
31285;BME280;56605;51.516;6.742;2023-11-18T06:21:21;102051.75;;;6.54;100.00
31285;BME280;56605;51.516;6.742;2023-11-18T06:23:50;102061.19;;;6.58;100.00
31285;BME280;56605;51.516;6.742;2023-11-18T06:26:16;102065.13;;;6.53;100.00
31285;BME280;56605;51.516;6.742;2023-11-18T06:28:44;102072.47;;;6.36;100.00
31285;BME280;56605;51.516;6.742;2023-11-18T06:31:09;102071.91;;;6.57;100.00
31285;BME280;56605;51.516;6.742;2023-11-18T06:33:37;102076.06;;;6.48;100.00
31285;BME280;56605;51.516;6.742;2023-11-18T06:36:04;102075.09;;;6.49;100.00
31285;BME280;56605;51.516;6.742;2023-11-18T06:38:30;102067.31;;;6.59;100.00
31285;BME280;56605;51.516;6.742;2023-11-18T06:40:55;102067.88;;;6.64;100.00
31285;BME280;56605;51.516;6.742;2023-11-18T06:43:23;102066.88;;;6.78;100.00
31285;BME280;56605;51.516;6.742;2023-11-18T06:45:48;102059.66;;;6.80;100.00
31285;BME280;56605;51.516;6.742;2023-11-18T06:48:14;102057.06;;;6.54;100.00
31285;BME280;56605;51.516;6.742;2023-11-18T06:50:40;102069.53;;;6.78;100.00
31285;BME280;56605;51.516;6.742;2023-11-18T06:53:09;102073.44;;;6.85;100.00
31285;BME280;56605;51.516;6.742;2023-11-18T06:55:35;102079.19;;;6.79;100.00
31285;BME280;56605;51.516;6.742;2023-11-18T06:58:01;102081.84;;;6.79;100.00
31285;BME280;56605;51.516;6.742;2023-11-18T07:00:27;102073.06;;;6.66;100.00
31285;BME280;56605;51.516;6.742;2023-11-18T07:02:54;102076.97;;;6.73;100.00
31285;BME280;56605;51.516;6.742;2023-11-18T07:05:19;102077.91;;;6.85;100.00
31285;BME280;56605;51.516;6.742;2023-11-18T07:07:45;102088.03;;;6.67;100.00
31285;BME280;56605;51.516;6.742;2023-11-18T07:10:11;102081.31;;;6.74;100.00
31285;BME280;56605;51.516;6.742;2023-11-18T07:12:38;102084.94;;;6.73;100.00
31285;BME280;56605;51.516;6.742;2023-11-18T07:15:05;102085.00;;;6.84;100.00
31285;BME280;56605;51.516;6.742;2023-11-18T07:17:30;102077.47;;;6.78;100.00
31285;BME280;56605;51.516;6.742;2023-11-18T07:19:55;102090.31;;;6.84;100.00
31285;BME280;56605;51.516;6.742;2023-11-18T07:22:21;102079.31;;;6.78;100.00
31285;BME280;56605;51.516;6.742;2023-11-18T07:24:46;102096.72;;;6.82;100.00
31285;BME280;56605;51.516;6.742;2023-11-18T07:27:12;102097.22;;;6.87;100.00
31285;BME280;56605;51.516;6.742;2023-11-18T07:29:38;102108.97;;;6.96;100.00
31285;BME280;56605;51.516;6.742;2023-11-18T07:32:03;102089.25;;;6.87;100.00
31285;BME280;56605;51.516;6.742;2023-11-18T07:34:33;102081.94;;;6.91;100.00
31285;BME280;56605;51.516;6.742;2023-11-18T07:36:59;102072.13;;;7.04;100.00
31285;BME280;56605;51.516;6.742;2023-11-18T07:39:24;102070.81;;;7.10;100.00
31285;BME280;56605;51.516;6.742;2023-11-18T07:42:03;102066.16;;;7.14;100.00
31285;BME280;56605;51.516;6.742;2023-11-18T07:44:30;102055.97;;;7.07;100.00
31285;BME280;56605;51.516;6.742;2023-11-18T07:46:58;102058.97;;;7.03;100.00
31285;BME280;56605;51.516;6.742;2023-11-18T07:49:23;102054.59;;;7.26;100.00
31285;BME280;56605;51.516;6.742;2023-11-18T07:51:51;102063.59;;;7.36;100.00
31285;BME280;56605;51.516;6.742;2023-11-18T07:54:16;102062.31;;;7.05;100.00
31285;BME280;56605;51.516;6.742;2023-11-18T07:56:43;102047.81;;;7.46;100.00
31285;BME280;56605;51.516;6.742;2023-11-18T07:59:11;102034.88;;;7.17;100.00
31285;BME280;56605;51.516;6.742;2023-11-18T08:01:41;102043.38;;;7.22;100.00
31285;BME280;56605;51.516;6.742;2023-11-18T08:04:09;102054.59;;;7.26;100.00
31285;BME280;56605;51.516;6.742;2023-11-18T08:06:35;102056.72;;;7.34;100.00
31285;BME280;56605;51.516;6.742;2023-11-18T08:09:00;102060.72;;;7.40;100.00
31285;BME280;56605;51.516;6.742;2023-11-18T08:11:25;102067.25;;;7.47;100.00
31285;BME280;56605;51.516;6.742;2023-11-18T08:13:50;102073.53;;;7.46;100.00
31285;BME280;56605;51.516;6.742;2023-11-18T08:16:16;102068.59;;;7.53;100.00
31285;BME280;56605;51.516;6.742;2023-11-18T08:18:42;102072.09;;;7.42;100.00
31285;BME280;56605;51.516;6.742;2023-11-18T08:21:07;102068.28;;;7.57;100.00
31285;BME280;56605;51.516;6.742;2023-11-18T08:23:32;102066.19;;;7.49;100.00
31285;BME280;56605;51.516;6.742;2023-11-18T08:25:58;102062.19;;;7.44;100.00
31285;BME280;56605;51.516;6.742;2023-11-18T08:28:24;102056.00;;;7.43;100.00
31285;BME280;56605;51.516;6.742;2023-11-18T08:30:50;102056.97;;;7.67;100.00
31285;BME280;56605;51.516;6.742;2023-11-18T08:33:16;102060.88;;;7.49;100.00
31285;BME280;56605;51.516;6.742;2023-11-18T08:35:42;102063.59;;;7.36;100.00
31285;BME280;56605;51.516;6.742;2023-11-18T08:38:08;102054.88;;;7.59;100.00
31285;BME280;56605;51.516;6.742;2023-11-18T08:40:33;102048.22;;;7.53;100.00
31285;BME280;56605;51.516;6.742;2023-11-18T08:42:59;102062.72;;;7.60;100.00
31285;BME280;56605;51.516;6.742;2023-11-18T08:45:27;102056.63;;;7.47;100.00
31285;BME280;56605;51.516;6.742;2023-11-18T08:48:02;102052.31;;;7.57;100.00
31285;BME280;56605;51.516;6.742;2023-11-18T08:50:29;102047.50;;;7.63;100.00
31285;BME280;56605;51.516;6.742;2023-11-18T08:52:56;102048.31;;;7.88;100.00
31285;BME280;56605;51.516;6.742;2023-11-18T08:55:28;102037.91;;;7.84;100.00
31285;BME280;56605;51.516;6.742;2023-11-18T08:58:07;102035.75;;;7.54;100.00
31285;BME280;56605;51.516;6.742;2023-11-18T09:00:49;102040.00;;;7.56;100.00
31285;BME280;56605;51.516;6.742;2023-11-18T09:03:23;102030.44;;;7.54;100.00
31285;BME280;56605;51.516;6.742;2023-11-18T09:06:04;102034.56;;;7.58;100.00
31285;BME280;56605;51.516;6.742;2023-11-18T09:08:34;102031.91;;;7.58;100.00
31285;BME280;56605;51.516;6.742;2023-11-18T09:11:02;102022.97;;;7.59;100.00
31285;BME280;56605;51.516;6.742;2023-11-18T09:13:31;102010.78;;;7.56;100.00
31285;BME280;56605;51.516;6.742;2023-11-18T09:15:57;102011.22;;;7.50;100.00
31285;BME280;56605;51.516;6.742;2023-11-18T09:18:25;101997.09;;;7.49;100.00
31285;BME280;56605;51.516;6.742;2023-11-18T09:20:52;101994.00;;;7.67;100.00
31285;BME280;56605;51.516;6.742;2023-11-18T09:23:19;101992.06;;;7.69;100.00
31285;BME280;56605;51.516;6.742;2023-11-18T09:25:46;101991.84;;;7.72;100.00
31285;BME280;56605;51.516;6.742;2023-11-18T09:28:12;101990.41;;;7.80;100.00
31285;BME280;56605;51.516;6.742;2023-11-18T09:30:39;101988.34;;;7.83;100.00
31285;BME280;56605;51.516;6.742;2023-11-18T09:33:15;101992.31;;;7.78;100.00
31285;BME280;56605;51.516;6.742;2023-11-18T09:35:50;102001.03;;;7.80;100.00
31285;BME280;56605;51.516;6.742;2023-11-18T09:38:17;101994.97;;;7.78;100.00
31285;BME280;56605;51.516;6.742;2023-11-18T09:40:43;101996.47;;;7.93;100.00
31285;BME280;56605;51.516;6.742;2023-11-18T09:43:09;101983.75;;;7.97;100.00
31285;BME280;56605;51.516;6.742;2023-11-18T09:45:36;101997.44;;;8.04;100.00
31285;BME280;56605;51.516;6.742;2023-11-18T09:48:01;101992.22;;;7.91;100.00
31285;BME280;56605;51.516;6.742;2023-11-18T09:50:28;101999.38;;;8.02;100.00
31285;BME280;56605;51.516;6.742;2023-11-18T09:52:56;101996.00;;;7.99;100.00
31285;BME280;56605;51.516;6.742;2023-11-18T09:58:16;101977.88;;;8.28;100.00
31285;BME280;56605;51.516;6.742;2023-11-18T10:00:46;101983.19;;;8.28;100.00
31285;BME280;56605;51.516;6.742;2023-11-18T10:03:16;101979.06;;;8.23;100.00
31285;BME280;56605;51.516;6.742;2023-11-18T10:05:41;101973.59;;;8.25;100.00
31285;BME280;56605;51.516;6.742;2023-11-18T10:08:07;101961.38;;;8.34;100.00
31285;BME280;56605;51.516;6.742;2023-11-18T10:10:34;101964.66;;;8.15;100.00
31285;BME280;56605;51.516;6.742;2023-11-18T10:13:04;101941.19;;;8.31;100.00
31285;BME280;56605;51.516;6.742;2023-11-18T10:15:46;101937.81;;;8.29;100.00
31285;BME280;56605;51.516;6.742;2023-11-18T10:18:13;101932.38;;;8.42;100.00
31285;BME280;56605;51.516;6.742;2023-11-18T10:20:50;101933.19;;;8.43;100.00
31285;BME280;56605;51.516;6.742;2023-11-18T10:23:20;101918.06;;;8.55;100.00
31285;BME280;56605;51.516;6.742;2023-11-18T10:25:46;101920.75;;;8.43;100.00
31285;BME280;56605;51.516;6.742;2023-11-18T10:28:29;101914.19;;;8.59;100.00
31285;BME280;56605;51.516;6.742;2023-11-18T10:30:57;101899.03;;;8.71;100.00
31285;BME280;56605;51.516;6.742;2023-11-18T10:33:26;101894.69;;;8.70;100.00
31285;BME280;56605;51.516;6.742;2023-11-18T10:35:56;101906.00;;;8.83;100.00
31285;BME280;56605;51.516;6.742;2023-11-18T10:38:22;101902.09;;;8.55;100.00
31285;BME280;56605;51.516;6.742;2023-11-18T10:40:54;101905.28;;;8.81;100.00
31285;BME280;56605;51.516;6.742;2023-11-18T10:43:21;101902.66;;;8.70;100.00
31285;BME280;56605;51.516;6.742;2023-11-18T10:45:50;101890.09;;;8.60;100.00
31285;BME280;56605;51.516;6.742;2023-11-18T10:48:16;101880.91;;;8.65;100.00
31285;BME280;56605;51.516;6.742;2023-11-18T10:50:47;101863.66;;;8.80;100.00
31285;BME280;56605;51.516;6.742;2023-11-18T10:53:16;101875.00;;;8.61;100.00
31285;BME280;56605;51.516;6.742;2023-11-18T10:55:41;101859.63;;;8.53;100.00
31285;BME280;56605;51.516;6.742;2023-11-18T10:58:07;101877.41;;;8.64;100.00
31285;BME280;56605;51.516;6.742;2023-11-18T11:00:49;101856.56;;;8.69;100.00
31285;BME280;56605;51.516;6.742;2023-11-18T11:03:15;101854.31;;;8.65;100.00
31285;BME280;56605;51.516;6.742;2023-11-18T11:05:40;101851.09;;;8.71;100.00
31285;BME280;56605;51.516;6.742;2023-11-18T11:08:09;101836.44;;;8.77;100.00
31285;BME280;56605;51.516;6.742;2023-11-18T11:10:42;101837.66;;;8.72;100.00
31285;BME280;56605;51.516;6.742;2023-11-18T11:13:08;101837.66;;;8.72;100.00
31285;BME280;56605;51.516;6.742;2023-11-18T11:15:39;101839.38;;;8.95;100.00
31285;BME280;56605;51.516;6.742;2023-11-18T11:18:08;101847.75;;;8.90;100.00
31285;BME280;56605;51.516;6.742;2023-11-18T11:20:42;101855.69;;;9.02;100.00
31285;BME280;56605;51.516;6.742;2023-11-18T11:23:31;101855.28;;;9.06;100.00
31285;BME280;56605;51.516;6.742;2023-11-18T11:29:04;101852.88;;;8.82;100.00
31285;BME280;56605;51.516;6.742;2023-11-18T11:31:40;101859.50;;;8.66;100.00
31285;BME280;56605;51.516;6.742;2023-11-18T11:34:11;101858.47;;;8.79;100.00
31285;BME280;56605;51.516;6.742;2023-11-18T11:36:46;101852.09;;;8.70;100.00
31285;BME280;56605;51.516;6.742;2023-11-18T11:39:12;101838.00;;;8.79;100.00
31285;BME280;56605;51.516;6.742;2023-11-18T11:41:43;101828.72;;;8.73;100.00
31285;BME280;56605;51.516;6.742;2023-11-18T11:44:12;101843.78;;;8.84;100.00
31285;BME280;56605;51.516;6.742;2023-11-18T11:46:38;101850.72;;;8.75;100.00
31285;BME280;56605;51.516;6.742;2023-11-18T11:49:08;101844.38;;;8.88;100.00
31285;BME280;56605;51.516;6.742;2023-11-18T11:51:48;101839.38;;;8.73;100.00
31285;BME280;56605;51.516;6.742;2023-11-18T11:54:20;101834.13;;;8.83;100.00
31285;BME280;56605;51.516;6.742;2023-11-18T11:56:49;101833.00;;;8.86;100.00
31285;BME280;56605;51.516;6.742;2023-11-18T11:59:55;101838.72;;;8.81;100.00
31285;BME280;56605;51.516;6.742;2023-11-18T12:02:22;101841.06;;;8.74;100.00
31285;BME280;56605;51.516;6.742;2023-11-18T12:04:55;101838.72;;;8.81;100.00
31285;BME280;56605;51.516;6.742;2023-11-18T12:07:24;101823.00;;;8.99;100.00
31285;BME280;56605;51.516;6.742;2023-11-18T12:10:01;101800.19;;;8.85;100.00
31285;BME280;56605;51.516;6.742;2023-11-18T12:12:31;101801.25;;;8.73;100.00
31285;BME280;56605;51.516;6.742;2023-11-18T12:14:59;101788.72;;;8.85;100.00
31285;BME280;56605;51.516;6.742;2023-11-18T12:20:39;101766.63;;;8.73;100.00
31285;BME280;56605;51.516;6.742;2023-11-18T12:23:08;101773.13;;;8.80;100.00
31285;BME280;56605;51.516;6.742;2023-11-18T12:25:40;101757.91;;;8.71;100.00
31285;BME280;56605;51.516;6.742;2023-11-18T12:28:15;101740.22;;;8.48;100.00
31285;BME280;56605;51.516;6.742;2023-11-18T12:30:42;101728.97;;;8.78;100.00
31285;BME280;56605;51.516;6.742;2023-11-18T12:33:18;101722.03;;;8.65;100.00
31285;BME280;56605;51.516;6.742;2023-11-18T12:41:38;101729.81;;;8.57;100.00
31285;BME280;56605;51.516;6.742;2023-11-18T12:44:30;101716.91;;;8.73;100.00
31285;BME280;56605;51.516;6.742;2023-11-18T12:47:04;101712.75;;;8.81;100.00
31285;BME280;56605;51.516;6.742;2023-11-18T12:49:47;101694.94;;;8.81;100.00
31285;BME280;56605;51.516;6.742;2023-11-18T12:52:20;101688.72;;;8.49;100.00
31285;BME280;56605;51.516;6.742;2023-11-18T12:54:47;101674.75;;;8.57;100.00
31285;BME280;56605;51.516;6.742;2023-11-18T12:57:16;101661.00;;;8.73;100.00
31285;BME280;56605;51.516;6.742;2023-11-18T12:59:43;101636.44;;;8.48;100.00
31285;BME280;56605;51.516;6.742;2023-11-18T13:02:09;101627.75;;;8.68;100.00
31285;BME280;56605;51.516;6.742;2023-11-18T13:04:39;101631.75;;;8.83;100.00
31285;BME280;56605;51.516;6.742;2023-11-18T13:07:05;101635.84;;;8.97;100.00
31285;BME280;56605;51.516;6.742;2023-11-18T13:09:34;101629.06;;;8.73;100.00